Time;durP1;ratioP1;P1;durP2;ratioP2;P2;SDS_P1;SDS_P2;PMS_P1;PMS_P2;Temp;Humidity;BMP_temperature;BMP_pressure;BME280_temperature;BME280_humidity;BME280_pressure;Samples;Min_cycle;Max_cycle;Signal;HPM_P1;HPM_P2
2022/04/21 00:00:43;;;;;;;;;;;;;;;11.28;52.11;100857.59;5036225;28;19928;-81
2022/04/21 00:03:08;;;;;;;;;;;;;;;11.34;51.10;100860.94;5056599;28;19990;-81
2022/04/21 00:05:34;;;;;;;;;;;;;;;11.32;50.23;100846.25;5046081;28;20464;-76
2022/04/21 00:07:59;;;;;;;;;;;;;;;11.34;50.30;100849.66;5050734;28;19974;-81
2022/04/21 00:10:25;;;;;;;;;;;;;;;11.39;50.57;100846.06;5056295;28;19952;-73
2022/04/21 00:12:51;;;;;;;;;;;;;;;11.36;51.39;100848.75;5057865;28;19986;-77
2022/04/21 00:15:17;;;;;;;;;;;;;;;11.37;50.61;100847.84;5049406;28;20317;-77
2022/04/21 00:17:42;;;;;;;;;;;;;;;11.39;49.65;100848.66;5053314;28;19932;-78
2022/04/21 00:20:08;;;;;;;;;;;;;;;11.29;49.74;100844.59;5038342;28;19924;-73
2022/04/21 00:25:17;;;;;;;;;;;;;;;11.29;50.78;100849.78;5058328;28;19990;-81
2022/04/21 00:27:44;;;;;;;;;;;;;;;11.32;50.10;100841.91;5048266;28;19921;-77
2022/04/21 00:30:10;;;;;;;;;;;;;;;11.37;49.43;100840.06;5064002;28;19927;-81
2022/04/21 00:32:36;;;;;;;;;;;;;;;11.35;49.64;100843.59;5060829;28;19935;-77
2022/04/21 00:35:03;;;;;;;;;;;;;;;11.22;49.63;100844.72;5054204;28;20392;-81
2022/04/21 00:37:28;;;;;;;;;;;;;;;11.24;49.63;100845.53;5057459;28;20288;-73
2022/04/21 00:39:54;;;;;;;;;;;;;;;11.25;50.41;100844.63;5055355;28;19925;-73
2022/04/21 00:42:19;;;;;;;;;;;;;;;11.16;51.15;100848.31;5054686;28;20108;-73
2022/04/21 00:44:44;;;;;;;;;;;;;;;11.07;51.56;100850.25;5061459;28;20284;-81
2022/04/21 00:47:10;;;;;;;;;;;;;;;11.12;50.31;100843.22;5056493;28;20277;-81
2022/04/21 00:49:35;;;;;;;;;;;;;;;11.11;50.27;100839.75;5051761;28;20038;-77
2022/04/21 00:52:01;;;;;;;;;;;;;;;11.10;50.35;100839.78;5059252;28;19995;-77
2022/04/21 00:54:31;;;;;;;;;;;;;;;11.20;49.90;100838.69;5048623;28;19925;-73
2022/04/21 00:56:56;;;;;;;;;;;;;;;11.07;49.93;100835.50;5058217;28;19928;-76
2022/04/21 00:59:22;;;;;;;;;;;;;;;11.16;50.23;100830.09;5055462;28;19929;-78
2022/04/21 01:04:32;;;;;;;;;;;;;;;11.12;50.20;100828.44;5051660;28;19923;-74
2022/04/21 01:06:57;;;;;;;;;;;;;;;11.11;49.77;100833.69;5048937;28;19920;-78
2022/04/21 01:09:23;;;;;;;;;;;;;;;11.07;50.06;100832.03;5048570;28;19951;-76
2022/04/21 01:11:49;;;;;;;;;;;;;;;11.06;50.15;100840.75;5052605;28;20447;-76
2022/04/21 01:14:15;;;;;;;;;;;;;;;11.02;51.10;100843.41;5049429;28;20056;-78
2022/04/21 01:16:40;;;;;;;;;;;;;;;10.89;50.80;100841.94;5032150;28;20024;-78
2022/04/21 01:19:06;;;;;;;;;;;;;;;11.01;50.64;100838.25;5058723;28;19924;-81
2022/04/21 01:21:31;;;;;;;;;;;;;;;10.98;51.08;100833.97;5054491;28;19927;-73
2022/04/21 01:23:56;;;;;;;;;;;;;;;10.87;51.50;100832.47;5053442;28;20321;-73
2022/04/21 01:26:22;;;;;;;;;;;;;;;10.76;51.29;100835.28;5051606;28;19960;-73
2022/04/21 01:28:49;;;;;;;;;;;;;;;10.81;51.14;100835.22;5058451;28;20300;-73
2022/04/21 01:31:20;;;;;;;;;;;;;;;10.73;51.61;100831.94;5055250;28;19925;-73
2022/04/21 01:33:45;;;;;;;;;;;;;;;10.67;51.71;100835.47;5052885;28;19924;-73
2022/04/21 01:36:10;;;;;;;;;;;;;;;10.82;51.75;100827.38;5057666;28;19943;-73
2022/04/21 01:41:20;;;;;;;;;;;;;;;10.83;51.86;100826.50;5060780;28;19927;-81
2022/04/21 01:43:45;;;;;;;;;;;;;;;10.78;51.92;100820.53;5054614;28;20003;-81
2022/04/21 01:46:11;;;;;;;;;;;;;;;10.66;52.24;100819.94;5057109;28;19933;-81
2022/04/21 01:48:36;;;;;;;;;;;;;;;10.69;52.47;100812.94;5034749;28;19921;-73
2022/04/21 01:51:02;;;;;;;;;;;;;;;10.67;52.36;100813.88;5033450;28;19965;-81
2022/04/21 01:53:27;;;;;;;;;;;;;;;10.65;52.51;100813.00;5056762;28;19925;-81
2022/04/21 01:55:52;;;;;;;;;;;;;;;10.73;52.29;100811.97;5036740;28;20016;-81
2022/04/21 01:58:18;;;;;;;;;;;;;;;10.72;52.14;100809.41;5056423;28;19971;-78
2022/04/21 02:00:43;;;;;;;;;;;;;;;10.61;53.15;100809.63;5049182;28;19920;-77
2022/04/21 02:03:09;;;;;;;;;;;;;;;10.63;53.28;100812.19;5055965;28;19925;-77
2022/04/21 02:05:34;;;;;;;;;;;;;;;10.71;53.28;100803.34;5062039;28;19921;-81
2022/04/21 02:08:00;;;;;;;;;;;;;;;10.60;53.30;100807.06;5055912;28;20332;-81
2022/04/21 02:10:26;;;;;;;;;;;;;;;10.69;52.27;100799.94;5052898;28;20503;-73
2022/04/21 02:12:51;;;;;;;;;;;;;;;10.72;52.59;100804.22;5052544;28;19928;-73
2022/04/21 02:15:17;;;;;;;;;;;;;;;10.66;52.11;100802.59;5051314;28;20035;-76
2022/04/21 02:17:43;;;;;;;;;;;;;;;10.72;51.19;100801.63;5056475;28;20011;-78
2022/04/21 02:20:09;;;;;;;;;;;;;;;10.61;52.25;100806.19;5052729;28;20012;-78
2022/04/21 02:22:35;;;;;;;;;;;;;;;10.71;52.17;100799.91;5055472;28;20007;-78
2022/04/21 02:25:01;;;;;;;;;;;;;;;10.59;52.47;100793.22;5051642;28;19921;-78
2022/04/21 02:27:26;;;;;;;;;;;;;;;10.65;52.27;100800.03;5052829;28;19925;-78
2022/04/21 02:29:52;;;;;;;;;;;;;;;10.57;51.93;100800.19;5049762;28;19925;-78
2022/04/21 02:32:18;;;;;;;;;;;;;;;10.42;51.82;100800.50;5052830;28;19929;-81
2022/04/21 02:34:43;;;;;;;;;;;;;;;10.43;52.38;100797.03;5045322;28;19974;-81
2022/04/21 02:37:09;;;;;;;;;;;;;;;10.38;52.37;100786.72;5052672;28;19982;-81
2022/04/21 02:39:34;;;;;;;;;;;;;;;10.38;52.72;100791.06;5047874;28;19931;-81
2022/04/21 02:42:00;;;;;;;;;;;;;;;10.35;52.72;100785.91;5053432;28;19925;-78
2022/04/21 02:44:25;;;;;;;;;;;;;;;10.47;52.38;100785.69;5055831;28;19928;-78
2022/04/21 02:46:51;;;;;;;;;;;;;;;10.23;52.42;100781.81;5053214;28;19957;-78
2022/04/21 02:49:16;;;;;;;;;;;;;;;10.24;52.74;100788.75;5059912;28;19925;-78
2022/04/21 02:51:41;;;;;;;;;;;;;;;10.28;52.48;100793.00;5028653;28;19960;-78
2022/04/21 02:57:20;;;;;;;;;;;;;;;9.77;54.12;100799.09;5008448;28;20490;-73
2022/04/21 02:59:46;;;;;;;;;;;;;;;10.09;53.34;100794.22;5045952;28;20023;-78
2022/04/21 03:02:11;;;;;;;;;;;;;;;9.88;53.84;100803.22;5055255;28;20368;-78
2022/04/21 03:04:36;;;;;;;;;;;;;;;10.02;53.67;100795.19;5056091;28;19925;-78
2022/04/21 03:07:02;;;;;;;;;;;;;;;10.07;53.12;100793.41;5042564;28;20424;-78
2022/04/21 03:09:27;;;;;;;;;;;;;;;10.15;53.14;100801.88;5044565;28;20663;-78
2022/04/21 03:11:52;;;;;;;;;;;;;;;10.08;53.73;100802.03;5052063;28;19933;-73
2022/04/21 03:14:19;;;;;;;;;;;;;;;10.04;53.01;100798.66;5058295;28;19956;-76
2022/04/21 03:16:44;;;;;;;;;;;;;;;9.84;53.48;100798.09;5051432;28;20415;-76
2022/04/21 03:19:10;;;;;;;;;;;;;;;9.50;54.87;100807.31;5051667;28;19924;-76
2022/04/21 03:24:19;;;;;;;;;;;;;;;9.78;54.49;100796.47;5052287;28;19977;-73
2022/04/21 03:26:45;;;;;;;;;;;;;;;9.70;54.45;100795.75;5050373;28;20564;-78
2022/04/21 03:29:10;;;;;;;;;;;;;;;9.72;54.20;100787.94;5058094;28;20166;-78
2022/04/21 03:31:35;;;;;;;;;;;;;;;9.85;54.49;100799.81;5050525;28;19932;-78
2022/04/21 03:34:02;;;;;;;;;;;;;;;9.97;54.02;100797.03;5045095;28;19971;-78
2022/04/21 03:36:27;;;;;;;;;;;;;;;9.99;53.56;100797.84;5051979;28;19925;-78
2022/04/21 03:38:53;;;;;;;;;;;;;;;9.92;53.65;100790.22;5049612;28;20419;-81
2022/04/21 03:41:18;;;;;;;;;;;;;;;9.70;53.69;100792.28;5057047;28;19920;-81
2022/04/21 03:43:43;;;;;;;;;;;;;;;9.83;53.94;100801.59;5047914;28;20464;-81
2022/04/21 03:46:09;;;;;;;;;;;;;;;9.81;53.92;100795.56;5049975;28;19971;-81
2022/04/21 03:48:35;;;;;;;;;;;;;;;9.96;53.51;100803.09;5030381;28;20035;-78
2022/04/21 03:51:00;;;;;;;;;;;;;;;9.97;53.45;100798.75;5045048;28;19933;-73
2022/04/21 03:53:25;;;;;;;;;;;;;;;10.04;53.27;100796.06;5044763;28;19927;-73
2022/04/21 03:55:51;;;;;;;;;;;;;;;9.95;53.56;100801.41;5053598;28;20023;-78
2022/04/21 03:58:17;;;;;;;;;;;;;;;10.04;53.24;100798.66;5053190;28;19933;-77
2022/04/21 04:00:43;;;;;;;;;;;;;;;9.92;53.38;100798.00;5048067;28;19920;-77
2022/04/21 04:03:08;;;;;;;;;;;;;;;9.93;52.66;100792.78;5049365;28;19940;-77
2022/04/21 04:05:33;;;;;;;;;;;;;;;9.88;53.52;100794.56;5049495;28;19931;-81
2022/04/21 04:10:52;;;;;;;;;;;;;;;9.86;53.58;100793.75;5048486;28;20469;-76
2022/04/21 04:13:21;;;;;;;;;;;;;;;9.67;53.49;100792.34;5050075;28;19925;-76
2022/04/21 04:15:49;;;;;;;;;;;;;;;9.76;53.76;100799.97;5050194;28;20405;-76
2022/04/21 04:18:15;;;;;;;;;;;;;;;9.49;54.24;100803.00;5054858;28;19920;-76
2022/04/21 04:20:41;;;;;;;;;;;;;;;9.41;54.22;100792.78;5049363;28;20019;-76
2022/04/21 04:23:06;;;;;;;;;;;;;;;9.23;55.12;100806.00;5048721;28;20015;-81
2022/04/21 04:25:31;;;;;;;;;;;;;;;9.49;55.10;100796.09;5048064;28;19925;-81
2022/04/21 04:27:57;;;;;;;;;;;;;;;9.63;54.60;100791.53;5050753;28;19960;-81
2022/04/21 04:30:22;;;;;;;;;;;;;;;9.67;54.27;100784.56;5050652;28;19928;-81
2022/04/21 04:32:48;;;;;;;;;;;;;;;9.68;54.05;100794.06;5057740;28;19925;-78
2022/04/21 04:35:16;;;;;;;;;;;;;;;9.50;54.07;100795.22;5051310;28;19936;-76
2022/04/21 04:37:41;;;;;;;;;;;;;;;9.35;54.50;100796.31;5049007;28;19916;-78
2022/04/21 04:40:07;;;;;;;;;;;;;;;9.45;54.62;100797.03;5054566;28;19925;-78
2022/04/21 04:42:32;;;;;;;;;;;;;;;9.65;53.84;100797.56;5054795;28;19925;-73
2022/04/21 04:47:41;;;;;;;;;;;;;;;9.67;54.17;100807.91;5055765;28;19935;-73
2022/04/21 04:50:07;;;;;;;;;;;;;;;9.45;54.84;100814.34;5050376;28;19929;-81
2022/04/21 04:52:33;;;;;;;;;;;;;;;9.69;53.83;100806.16;5044218;28;19925;-80
2022/04/21 04:54:58;;;;;;;;;;;;;;;9.63;54.36;100803.66;5052452;28;19983;-81
2022/04/21 04:57:24;;;;;;;;;;;;;;;9.44;54.64;100817.78;5051656;28;19948;-78
2022/04/21 04:59:49;;;;;;;;;;;;;;;9.62;54.77;100825.28;5056404;28;20317;-78
2022/04/21 05:02:14;;;;;;;;;;;;;;;9.39;55.10;100817.00;5055082;28;19921;-78
2022/04/21 05:04:40;;;;;;;;;;;;;;;9.47;55.59;100816.00;5053211;28;19931;-78
2022/04/21 05:07:05;;;;;;;;;;;;;;;9.28;55.64;100817.16;5050775;28;20565;-77
2022/04/21 05:09:31;;;;;;;;;;;;;;;9.39;55.70;100815.28;5053030;28;19971;-77
2022/04/21 05:11:57;;;;;;;;;;;;;;;9.25;56.48;100822.38;5063618;28;19929;-78
2022/04/21 05:14:23;;;;;;;;;;;;;;;9.51;55.61;100816.81;5052727;28;19921;-73
2022/04/21 05:16:49;;;;;;;;;;;;;;;9.65;55.14;100809.69;5052588;28;19927;-81
2022/04/21 05:19:16;;;;;;;;;;;;;;;9.59;55.83;100809.78;5055304;28;20327;-81
2022/04/21 05:21:41;;;;;;;;;;;;;;;9.63;55.70;100801.91;5054666;28;19933;-81
2022/04/21 05:24:07;;;;;;;;;;;;;;;9.66;55.74;100806.22;5058873;28;19924;-81
2022/04/21 05:26:33;;;;;;;;;;;;;;;9.70;55.72;100805.25;5053873;28;19921;-81
2022/04/21 05:28:59;;;;;;;;;;;;;;;9.73;56.11;100797.41;5050546;28;20420;-78
2022/04/21 05:31:28;;;;;;;;;;;;;;;9.72;56.29;100796.56;5053087;28;19932;-77
2022/04/21 05:33:53;;;;;;;;;;;;;;;9.78;55.91;100793.88;5049298;28;19960;-77
2022/04/21 05:36:19;;;;;;;;;;;;;;;9.74;55.90;100796.56;5053221;28;19967;-82
2022/04/21 05:38:46;;;;;;;;;;;;;;;9.62;56.41;100797.63;5052407;28;19974;-81
2022/04/21 05:41:13;;;;;;;;;;;;;;;9.73;56.66;100787.91;5047087;28;20018;-82
2022/04/21 05:43:40;;;;;;;;;;;;;;;9.71;56.84;100788.81;5054052;28;20389;-74
2022/04/21 05:46:06;;;;;;;;;;;;;;;9.73;56.65;100785.31;5036063;28;20059;-81
2022/04/21 05:48:31;;;;;;;;;;;;;;;9.77;57.08;100783.53;5054838;28;19921;-78
2022/04/21 05:50:57;;;;;;;;;;;;;;;9.87;56.96;100785.06;5059474;28;19932;-78
2022/04/21 05:53:23;;;;;;;;;;;;;;;9.88;56.30;100781.59;5054415;28;19921;-78
2022/04/21 05:55:49;;;;;;;;;;;;;;;9.87;56.15;100780.72;5034010;28;19979;-78
2022/04/21 05:58:14;;;;;;;;;;;;;;;9.83;55.68;100776.50;5050771;28;19912;-76
2022/04/21 06:00:39;;;;;;;;;;;;;;;9.86;56.39;100781.63;5038137;28;19929;-73
2022/04/21 06:03:05;;;;;;;;;;;;;;;9.80;56.25;100784.34;5052326;28;19917;-74
2022/04/21 06:05:31;;;;;;;;;;;;;;;9.77;56.53;100792.16;5060792;28;19967;-82
2022/04/21 06:07:56;;;;;;;;;;;;;;;9.88;56.24;100785.06;5059210;28;20512;-76
2022/04/21 06:10:21;;;;;;;;;;;;;;;9.79;55.93;100782.63;5060074;28;19927;-76
2022/04/21 06:12:47;;;;;;;;;;;;;;;9.85;56.85;100782.50;5054700;28;19928;-76
2022/04/21 06:15:12;;;;;;;;;;;;;;;9.99;55.80;100776.25;5057570;28;19921;-76
2022/04/21 06:17:41;;;;;;;;;;;;;;;9.87;56.66;100780.72;5052199;28;19928;-79
2022/04/21 06:20:07;;;;;;;;;;;;;;;10.07;55.38;100779.56;5050187;28;19982;-81
2022/04/21 06:22:33;;;;;;;;;;;;;;;9.87;56.59;100785.91;5050833;28;19916;-77
2022/04/21 06:24:58;;;;;;;;;;;;;;;10.12;55.06;100785.50;5051629;28;19920;-73
2022/04/21 06:27:23;;;;;;;;;;;;;;;10.08;55.95;100782.09;5044195;28;19921;-73
2022/04/21 06:29:49;;;;;;;;;;;;;;;10.15;55.96;100782.84;5053929;28;19927;-74
2022/04/21 06:32:14;;;;;;;;;;;;;;;10.09;56.05;100780.38;5051605;28;19925;-76
2022/04/21 06:34:39;;;;;;;;;;;;;;;10.13;56.88;100777.72;5056651;28;19924;-80
2022/04/21 06:37:05;;;;;;;;;;;;;;;10.09;56.96;100776.03;5051431;28;20435;-82
2022/04/21 06:39:30;;;;;;;;;;;;;;;10.13;57.10;100769.94;5047013;28;20007;-82
2022/04/21 06:41:55;;;;;;;;;;;;;;;10.16;56.93;100759.47;5050972;28;19920;-73
2022/04/21 06:49:48;;;;;;;;;;;;;;;10.26;55.97;100771.38;5057207;28;19968;-79
2022/04/21 06:52:13;;;;;;;;;;;;;;;10.28;56.51;100768.78;5061593;28;19925;-78
2022/04/21 06:54:39;;;;;;;;;;;;;;;10.32;56.67;100770.41;5054054;28;19971;-73
2022/04/21 06:57:04;;;;;;;;;;;;;;;10.31;55.60;100776.50;5053116;28;19924;-73
2022/04/21 06:59:29;;;;;;;;;;;;;;;10.32;55.02;100776.44;5057765;28;20384;-73
2022/04/21 07:01:55;;;;;;;;;;;;;;;10.32;54.83;100778.19;5049967;28;19983;-78
2022/04/21 07:04:20;;;;;;;;;;;;;;;10.43;53.98;100769.28;5052530;28;19970;-82
2022/04/21 07:06:46;;;;;;;;;;;;;;;10.34;53.67;100764.28;5056573;28;20011;-81
2022/04/21 07:09:11;;;;;;;;;;;;;;;10.32;53.01;100766.06;5053777;28;19925;-81
2022/04/21 07:11:38;;;;;;;;;;;;;;;10.46;53.89;100769.22;5039673;28;19932;-73
2022/04/21 07:14:03;;;;;;;;;;;;;;;10.51;53.50;100761.38;5032448;28;19922;-73
2022/04/21 07:16:28;;;;;;;;;;;;;;;10.54;54.01;100773.44;5057030;28;19987;-74
2022/04/21 07:18:54;;;;;;;;;;;;;;;10.54;53.52;100766.50;5052393;28;19929;-78
2022/04/21 07:21:19;;;;;;;;;;;;;;;10.59;53.41;100764.66;5053923;28;20404;-78
2022/04/21 07:23:44;;;;;;;;;;;;;;;10.53;52.65;100758.72;5051714;28;19931;-73
2022/04/21 07:26:10;;;;;;;;;;;;;;;10.63;52.35;100755.91;5051002;28;20089;-78
2022/04/21 07:28:35;;;;;;;;;;;;;;;10.67;52.80;100761.91;5050445;28;20019;-79
2022/04/21 07:31:00;;;;;;;;;;;;;;;10.69;52.86;100760.13;5054676;28;20584;-78
2022/04/21 07:33:26;;;;;;;;;;;;;;;10.61;53.56;100765.47;5056417;28;19925;-82
2022/04/21 07:35:56;;;;;;;;;;;;;;;10.64;55.59;100759.38;5055261;28;20753;-82
2022/04/21 07:38:21;;;;;;;;;;;;;;;10.69;55.24;100763.56;5050713;28;19963;-79
2022/04/21 07:40:53;;;;;;;;;;;;;;;10.67;55.96;100754.09;5032433;28;19975;-79
2022/04/21 07:43:19;;;;;;;;;;;;;;;10.67;54.74;100752.34;5031821;28;20625;-79
2022/04/21 07:45:49;;;;;;;;;;;;;;;10.74;55.59;100758.25;5050276;28;19931;-79
2022/04/21 07:48:14;;;;;;;;;;;;;;;10.71;55.30;100754.00;5049213;28;19924;-79
2022/04/21 07:50:40;;;;;;;;;;;;;;;10.65;56.84;100753.25;5057396;28;20385;-79
2022/04/21 07:53:14;;;;;;;;;;;;;;;10.74;55.58;100753.06;5052852;28;19931;-74
2022/04/21 07:55:44;;;;;;;;;;;;;;;10.70;56.20;100754.88;5059479;28;19967;-74
2022/04/21 07:58:09;;;;;;;;;;;;;;;10.76;54.12;100753.91;5056116;28;20004;-74
2022/04/21 08:00:38;;;;;;;;;;;;;;;10.74;55.32;100753.06;5032294;28;20015;-78
2022/04/21 08:03:07;;;;;;;;;;;;;;;10.77;54.86;100747.81;5031490;28;20019;-77
2022/04/21 08:05:33;;;;;;;;;;;;;;;10.83;55.30;100745.94;5050357;28;19929;-77
2022/04/21 08:07:59;;;;;;;;;;;;;;;10.90;54.99;100750.13;5051094;28;19920;-82
2022/04/21 08:10:27;;;;;;;;;;;;;;;11.02;53.65;100744.63;5050635;28;19920;-82
2022/04/21 08:12:53;;;;;;;;;;;;;;;11.05;52.95;100748.03;5050662;28;20382;-82
2022/04/21 08:15:26;;;;;;;;;;;;;;;11.08;53.51;100750.56;5052259;28;19970;-82
2022/04/21 08:17:52;;;;;;;;;;;;;;;11.17;53.42;100747.75;5046582;28;19921;-78
2022/04/21 08:20:18;;;;;;;;;;;;;;;11.17;53.67;100755.56;5050590;28;19925;-77
2022/04/21 08:22:44;;;;;;;;;;;;;;;11.16;53.68;100756.44;5041521;28;19967;-77
2022/04/21 08:33:21;;;;;;;;;;;;;;;11.29;53.67;100752.72;5059904;28;20024;-74
2022/04/21 08:35:46;;;;;;;;;;;;;;;11.33;52.92;100743.91;5066778;28;20014;-78
2022/04/21 08:38:12;;;;;;;;;;;;;;;11.27;54.61;100737.09;5048736;28;19931;-78
2022/04/21 08:40:38;;;;;;;;;;;;;;;11.30;53.56;100738.78;5048005;28;19975;-81
2022/04/21 08:43:22;;;;;;;;;;;;;;;11.33;53.57;100742.19;5054600;28;19925;-78
2022/04/21 08:45:48;;;;;;;;;;;;;;;11.40;52.49;100738.56;5048034;28;19932;-78
2022/04/21 08:48:14;;;;;;;;;;;;;;;11.48;51.71;100736.59;5045034;28;20698;-79
2022/04/21 08:50:40;;;;;;;;;;;;;;;11.50;51.73;100729.59;5048920;28;20570;-77
2022/04/21 08:53:06;;;;;;;;;;;;;;;11.57;51.38;100727.69;5055714;28;19978;-77
2022/04/21 08:55:32;;;;;;;;;;;;;;;11.58;52.20;100724.22;5049342;28;19935;-76
2022/04/21 08:57:58;;;;;;;;;;;;;;;11.63;50.73;100721.47;5053283;28;19913;-82
2022/04/21 09:00:24;;;;;;;;;;;;;;;11.64;50.49;100721.47;5045834;28;20276;-82
2022/04/21 09:02:50;;;;;;;;;;;;;;;11.70;50.39;100716.09;5054033;28;20022;-82
2022/04/21 09:05:16;;;;;;;;;;;;;;;11.65;50.02;100710.13;5033632;28;20285;-82
2022/04/21 09:07:45;;;;;;;;;;;;;;;11.71;49.93;100702.16;5055832;28;19920;-82
2022/04/21 09:10:13;;;;;;;;;;;;;;;11.72;49.76;100698.69;5048712;28;19917;-82
2022/04/21 09:12:48;;;;;;;;;;;;;;;11.78;49.08;100706.31;5049933;28;20399;-82
2022/04/21 09:15:14;;;;;;;;;;;;;;;11.81;47.32;100698.44;5061161;28;20574;-82
2022/04/21 09:17:44;;;;;;;;;;;;;;;11.87;48.38;100694.81;5052806;28;19928;-82
2022/04/21 09:20:10;;;;;;;;;;;;;;;11.93;44.63;100681.63;5027661;28;19931;-77
2022/04/21 09:22:39;;;;;;;;;;;;;;;11.89;44.99;100687.84;5052530;28;19917;-77
2022/04/21 09:25:04;;;;;;;;;;;;;;;11.95;43.82;100682.44;5049942;28;19921;-78
2022/04/21 09:27:39;;;;;;;;;;;;;;;11.96;43.54;100678.94;5048648;28;19925;-77
2022/04/21 09:30:09;;;;;;;;;;;;;;;12.11;45.32;100671.56;5048008;28;19931;-79
2022/04/21 09:32:35;;;;;;;;;;;;;;;11.98;42.96;100666.72;5045486;28;19981;-79
2022/04/21 09:35:00;;;;;;;;;;;;;;;12.08;44.26;100662.97;5047318;28;20364;-77
2022/04/21 09:37:26;;;;;;;;;;;;;;;12.12;43.31;100662.00;5046320;28;20003;-77
2022/04/21 09:39:52;;;;;;;;;;;;;;;12.09;42.84;100659.50;5054586;28;19924;-77
2022/04/21 09:42:24;;;;;;;;;;;;;;;12.15;42.56;100661.91;5050765;28;20270;-77
2022/04/21 09:47:33;;;;;;;;;;;;;;;12.12;43.17;100656.78;5055952;28;20289;-74
2022/04/21 09:50:09;;;;;;;;;;;;;;;12.07;42.99;100661.25;5054380;28;19924;-74
2022/04/21 09:52:36;;;;;;;;;;;;;;;12.21;42.05;100653.91;5052587;28;19935;-74
2022/04/21 09:55:18;;;;;;;;;;;;;;;12.31;43.89;100654.47;5052871;28;19921;-74
2022/04/21 09:58:04;;;;;;;;;;;;;;;12.31;43.23;100651.88;5049205;28;19924;-79
2022/04/21 10:00:30;;;;;;;;;;;;;;;12.37;41.10;100644.72;5045786;28;19925;-82
2022/04/21 10:02:56;;;;;;;;;;;;;;;12.33;43.52;100642.28;5052325;28;20024;-83
2022/04/21 10:05:21;;;;;;;;;;;;;;;12.42;46.44;100647.22;5053954;28;19999;-82
2022/04/21 10:07:47;;;;;;;;;;;;;;;12.49;44.94;100631.34;5053923;28;20389;-79
2022/04/21 10:10:12;;;;;;;;;;;;;;;12.56;43.83;100632.03;5051938;28;19924;-74
2022/04/21 10:12:38;;;;;;;;;;;;;;;12.55;43.26;100631.19;5067506;28;19936;-74
2022/04/21 10:15:04;;;;;;;;;;;;;;;12.58;42.27;100619.81;5045799;28;19924;-74
2022/04/21 10:17:29;;;;;;;;;;;;;;;12.59;42.93;100622.38;5048293;28;20381;-78
2022/04/21 10:19:55;;;;;;;;;;;;;;;12.66;42.54;100621.25;5046741;28;20384;-78
2022/04/21 10:22:20;;;;;;;;;;;;;;;12.70;43.62;100623.78;5047026;28;20011;-78
2022/04/21 10:24:46;;;;;;;;;;;;;;;12.75;42.90;100617.50;5047046;28;20012;-77
2022/04/21 10:27:30;;;;;;;;;;;;;;;12.74;42.79;100614.97;5049696;28;19924;-74
2022/04/21 10:29:55;;;;;;;;;;;;;;;12.81;43.26;100611.28;5050926;28;20014;-74
2022/04/21 10:32:21;;;;;;;;;;;;;;;12.83;46.73;100620.75;5049670;28;19947;-74
2022/04/21 10:34:48;;;;;;;;;;;;;;;12.94;43.50;100612.56;5050871;28;19975;-73
2022/04/21 10:37:18;;;;;;;;;;;;;;;12.92;43.27;100612.63;5049474;28;19971;-74
2022/04/21 10:40:01;;;;;;;;;;;;;;;12.91;45.51;100608.31;5049377;28;20381;-82
2022/04/21 10:42:26;;;;;;;;;;;;;;;13.02;42.61;100602.72;5043869;28;19925;-79
2022/04/21 10:44:53;;;;;;;;;;;;;;;13.09;42.64;100599.00;5046479;28;19991;-79
2022/04/21 10:47:37;;;;;;;;;;;;;;;13.07;41.35;100593.00;5045549;28;19975;-79
2022/04/21 10:50:13;;;;;;;;;;;;;;;13.16;43.50;100590.09;5044374;28;19921;-73
2022/04/21 10:58:32;;;;;;;;;;;;;;;13.32;43.56;100579.94;5048367;28;19975;-77
2022/04/21 11:01:10;;;;;;;;;;;;;;;13.28;42.45;100581.84;5054449;28;19944;-74
2022/04/21 11:03:38;;;;;;;;;;;;;;;13.22;44.19;100571.63;5052431;28;19929;-73
2022/04/21 11:06:07;;;;;;;;;;;;;;;13.19;44.97;100571.72;5053128;28;19930;-74
2022/04/21 11:08:33;;;;;;;;;;;;;;;13.31;43.19;100568.69;5051134;28;19928;-74
2022/04/21 11:10:58;;;;;;;;;;;;;;;13.26;44.37;100569.72;5025943;28;19932;-82
2022/04/21 11:13:44;;;;;;;;;;;;;;;13.31;43.25;100570.44;5048608;28;20377;-82
2022/04/21 11:16:09;;;;;;;;;;;;;;;13.36;42.86;100556.31;5014174;28;19951;-73
2022/04/21 11:18:35;;;;;;;;;;;;;;;13.38;43.59;100559.72;5044774;28;20480;-73
2022/04/21 11:21:19;;;;;;;;;;;;;;;13.36;42.63;100558.94;5045849;28;19936;-74
2022/04/21 11:23:44;;;;;;;;;;;;;;;13.34;44.24;100559.91;5053126;28;20118;-74
2022/04/21 11:26:10;;;;;;;;;;;;;;;13.44;42.82;100549.06;5054719;28;20941;-74
2022/04/21 11:28:35;;;;;;;;;;;;;;;13.48;41.23;100549.81;5053786;28;19920;-78
2022/04/21 11:31:02;;;;;;;;;;;;;;;13.48;42.68;100549.81;5048335;28;19928;-82
2022/04/21 11:33:28;;;;;;;;;;;;;;;13.37;43.65;100549.34;5033941;28;20274;-81
2022/04/21 11:36:19;;;;;;;;;;;;;;;13.40;43.91;100550.09;5027841;28;20652;-82
2022/04/21 11:38:47;;;;;;;;;;;;;;;13.44;44.58;100540.38;5042516;28;19921;-82
2022/04/21 11:41:13;;;;;;;;;;;;;;;13.49;43.50;100531.47;5054108;28;20344;-82
2022/04/21 11:43:48;;;;;;;;;;;;;;;13.46;44.49;100538.59;5061405;28;20447;-82
2022/04/21 11:46:13;;;;;;;;;;;;;;;13.54;44.28;100531.31;5063164;28;19925;-82
2022/04/21 11:48:40;;;;;;;;;;;;;;;13.64;42.57;100530.91;5039898;28;19924;-74
2022/04/21 11:51:06;;;;;;;;;;;;;;;13.71;42.57;100532.44;5051841;28;19924;-73
2022/04/21 11:53:36;;;;;;;;;;;;;;;13.85;44.35;100542.34;5048263;28;20037;-73
2022/04/21 11:56:02;;;;;;;;;;;;;;;13.92;42.52;100543.81;5055254;28;20630;-74
2022/04/21 11:58:46;;;;;;;;;;;;;;;13.75;44.77;100538.38;5066338;28;20262;-73
2022/04/21 12:06:41;;;;;;;;;;;;;;;14.00;41.20;100528.69;5041881;28;20420;-76
2022/04/21 12:09:07;;;;;;;;;;;;;;;13.94;41.28;100526.31;5051435;28;20024;-78
2022/04/21 12:11:33;;;;;;;;;;;;;;;13.95;42.20;100525.41;5056672;28;20023;-77
2022/04/21 12:13:59;;;;;;;;;;;;;;;13.98;42.50;100519.22;5050035;28;20393;-79
2022/04/21 12:16:36;;;;;;;;;;;;;;;14.03;42.71;100517.28;5051899;28;19956;-77
2022/04/21 12:19:12;;;;;;;;;;;;;;;14.09;42.55;100511.81;5051856;28;20613;-81
2022/04/21 12:21:37;;;;;;;;;;;;;;;14.04;42.69;100512.00;5044058;28;19925;-81
2022/04/21 12:24:20;;;;;;;;;;;;;;;13.98;43.47;100506.16;5056242;28;19920;-82
2022/04/21 12:26:52;;;;;;;;;;;;;;;13.80;45.95;100504.25;5048358;28;19931;-77
2022/04/21 12:29:18;;;;;;;;;;;;;;;13.89;43.39;100494.31;5055629;28;20389;-74
2022/04/21 12:31:46;;;;;;;;;;;;;;;13.89;41.65;100490.84;5045397;28;20013;-74
2022/04/21 12:34:12;;;;;;;;;;;;;;;13.94;42.59;100500.19;5029333;28;19925;-81
2022/04/21 12:36:37;;;;;;;;;;;;;;;13.87;42.44;100495.28;5055756;28;19932;-74
2022/04/21 12:39:03;;;;;;;;;;;;;;;13.76;42.81;100493.06;5060821;28;19928;-74
2022/04/21 12:41:28;;;;;;;;;;;;;;;13.87;42.04;100485.69;5054299;28;20448;-81
2022/04/21 12:43:53;;;;;;;;;;;;;;;13.89;40.84;100483.88;5057402;28;19925;-81
2022/04/21 12:46:22;;;;;;;;;;;;;;;13.92;41.07;100483.75;5053197;28;20293;-81
2022/04/21 12:48:50;;;;;;;;;;;;;;;13.92;40.48;100488.13;5030821;28;20019;-79
2022/04/21 12:51:19;;;;;;;;;;;;;;;13.91;41.69;100481.22;5057440;28;20003;-79
2022/04/21 12:53:53;;;;;;;;;;;;;;;13.99;42.50;100481.75;5049787;28;20035;-81
2022/04/21 12:56:18;;;;;;;;;;;;;;;14.16;43.13;100476.72;5054869;28;20011;-79
2022/04/21 12:58:54;;;;;;;;;;;;;;;14.17;42.32;100478.41;5052076;28;20067;-77
2022/04/21 13:01:19;;;;;;;;;;;;;;;14.20;41.17;100480.91;5053976;28;20274;-77
2022/04/21 13:03:45;;;;;;;;;;;;;;;14.17;40.88;100476.66;5054089;28;19927;-77
2022/04/21 13:06:10;;;;;;;;;;;;;;;14.11;43.13;100471.69;5057130;28;20396;-77
2022/04/21 13:08:35;;;;;;;;;;;;;;;14.00;47.57;100475.59;5057228;28;19928;-77
2022/04/21 13:11:01;;;;;;;;;;;;;;;14.33;42.05;100466.41;5047325;28;19967;-77
2022/04/21 13:13:29;;;;;;;;;;;;;;;14.30;41.86;100462.16;5042810;28;19989;-81
2022/04/21 13:15:55;;;;;;;;;;;;;;;14.28;39.79;100455.31;5060308;28;19927;-81
2022/04/21 13:18:20;;;;;;;;;;;;;;;14.33;40.10;100458.56;5059622;28;19928;-81
2022/04/21 13:23:29;;;;;;;;;;;;;;;14.36;40.81;100448.00;5057485;28;19931;-81
2022/04/21 13:25:55;;;;;;;;;;;;;;;14.32;41.11;100443.84;5057919;28;19929;-81